Flight Track Log - Related Links

Times and Time Zones

All times are in EST time to prevent confusion due to time zone crossing. See the UPS1083 flight status page for this flight to view local times or setup timezone preferences in your user account.

Time Position Orientation Groundspeed Altitude Reporting Facility
EST Latitude Longitude Course Direction KTS MPH feet Rate Location/Type
Mon 10:43:48 PM 40.6938 -74.1678 201° Southwest 120 138  Level FlightAware ADS-B
Mon 10:44:12 PM 40.6779 -74.1779 206° Southwest 135 155 500 1,742 Climbing FlightAware ADS-B
Mon 10:44:19 PM 40.6731 -74.1807 204° Southwest 167 192 900 2,800 Climbing FlightAware ADS-B
Mon 10:44:27 PM 40.6666 -74.1827 193° South 187 215 1,200 1,846 Climbing FlightAware ADS-B
Mon 10:44:32 PM 40.6620 -74.1832 185° South 195 224 1,300 1,200 Climbing FlightAware ADS-B
Mon 10:44:37 PM 40.6575 -74.1832 180° South 209 241 1,400 1,714 Climbing FlightAware ADS-B
Mon 10:44:46 PM 40.6480 -74.1829 179° South 224 258 1,700 2,308 Climbing FlightAware ADS-B
Mon 10:44:50 PM 40.6440 -74.1834 185° South 228 262 1,900 3,333 Climbing FlightAware ADS-B
Mon 10:44:55 PM 40.6393 -74.1847 192° South 227 261 2,200 4,000 Climbing FlightAware ADS-B
Mon 10:45:29 PM 40.6193 -74.2184 232° Southwest 226 260 4,500 4,000 Climbing FlightAware ADS-B
Mon 10:45:37 PM 40.6193 -74.2300 270° West 230 265 5,000 3,840 Climbing FlightAware ADS-B
Mon 10:45:54 PM 40.6201 -74.2542 273° West 243 280 6,100 4,333 Climbing FlightAware ADS-B
Mon 10:46:13 PM 40.6212 -74.2831 273° West 243 280 7,600 4,605 Climbing FlightAware ADS-B
Mon 10:46:37 PM 40.6212 -74.3193 270° West 247 284 9,400 3,000 Climbing FlightAware ADS-B
Mon 10:48:47 PM 40.5652 -74.5585 253° West 386 444 15,300 2,634 Climbing FlightAware ADS-B (KWWD)
Mon 10:49:21 PM 40.5465 -74.6362 252° West 402 463 16,600 1,147 Climbing FlightAware ADS-B (KWWD)
Mon 10:49:55 PM 40.5263 -74.7125 251° West 400 460 16,600 750 Level FlightAware ADS-B (KWWD)
Mon 10:50:25 PM 40.5090 -74.7819 252° West 401 461 17,400 2,900 Climbing FlightAware ADS-B (KWWD)
Mon 10:50:55 PM 40.4894 -74.8502 249° West 395 455 19,500 3,403 Climbing FlightAware ADS-B (KWWD)
Mon 10:51:32 PM 40.4594 -74.9343 245° Southwest 413 475 21,200 2,734 Climbing FlightAware ADS-B (KWWD)
Mon 10:52:14 PM 40.4248 -75.0311 245° Southwest 429 494 23,100 2,877 Climbing FlightAware ADS-B (KWWD)
Mon 10:52:45 PM 40.4000 -75.1046 246° West 429 494 24,700 3,600 Climbing FlightAware ADS-B (KWWD)
Mon 10:53:24 PM 40.3675 -75.1970 245° Southwest 417 480 27,300 4,371 Climbing FlightAware ADS-B (KWWD)
Mon 10:53:55 PM 40.3437 -75.2651 245° Southwest 393 452 29,800 3,836 Climbing FlightAware ADS-B (KWWD)
Mon 10:54:25 PM 40.3210 -75.3275 245° Southwest 390 449 31,200 1,941 Climbing FlightAware ADS-B (KWWD)
Mon 10:55:03 PM 40.2921 -75.4097 245° Southwest 385 443 32,000 706 Climbing FlightAware ADS-B (KWWD)
Mon 10:55:33 PM 40.2744 -75.4744 250° West 378 435 32,000 400 Level FlightAware ADS-B (KWWD)
Mon 10:56:03 PM 40.2570 -75.5396 251° West 379 436 32,400 1,645 Climbing FlightAware ADS-B (KWWD)
Mon 10:56:35 PM 40.2386 -75.6066 250° West 368 423 33,700 2,366 Climbing FlightAware ADS-B (KWWD)
Mon 10:57:14 PM 40.2161 -75.6889 250° West 356 410 35,200 2,000 Climbing FlightAware ADS-B (KWWD)
Mon 10:57:44 PM 40.1997 -75.7492 250° West 355 409 36,000 774 Climbing FlightAware ADS-B (KWWD)
Mon 10:58:16 PM 40.1829 -75.8107 250° West 351 404 36,000  Level FlightAware ADS-B
Mon 10:58:40 PM 40.1708 -75.8549 250° West 352 405 36,000  Level FlightAware ADS-B
Mon 10:58:44 PM 40.1677 -75.8660 250° West 352 405 36,000  Level FlightAware ADS-B
Mon 10:59:02 PM 40.1594 -75.8959 250° West 353 406 36,000  Level FlightAware ADS-B
Mon 10:59:09 PM 40.1565 -75.9064 250° West 353 406 36,000  Level FlightAware ADS-B
Mon 10:59:29 PM 40.1431 -75.9551 250° West 354 407 36,000  Level FlightAware ADS-B
Mon 10:59:55 PM 40.1343 -75.9870 250° West 353 406 36,000  Level FlightAware ADS-B
Mon 11:00:04 PM 40.1343 -75.9870 250° West 352 405 36,000  Level FlightAware ADS-B
Mon 11:00:10 PM 40.1202 -76.0382 250° West 352 405 36,000  Level FlightAware ADS-B
Mon 11:00:46 PM 40.0996 -76.1123 250° West 348 400 36,000  Level FlightAware ADS-B (KWWD)
Mon 11:01:26 PM 40.0773 -76.1925 250° West 349 402 36,000  Level FlightAware ADS-B (KWWD)
Mon 11:01:45 PM 40.0678 -76.2266 250° West 353 406 36,000  Level FlightAware ADS-B
Mon 11:02:02 PM 40.0576 -76.2631 250° West 354 407 36,000  Level FlightAware ADS-B
Mon 11:02:26 PM 40.0462 -76.3042 250° West 353 406 36,000  Level FlightAware ADS-B
Mon 11:02:44 PM 40.0365 -76.3392 250° West 352 405 36,000  Level FlightAware ADS-B
Mon 11:02:52 PM 40.0297 -76.3633 250° West 353 406 36,000  Level FlightAware ADS-B
Mon 11:03:06 PM 40.0226 -76.3885 250° West 353 406 36,000  Level FlightAware ADS-B
Mon 11:03:15 PM 40.0167 -76.4093 250° West 351 404 36,000  Level FlightAware ADS-B (KWWD)
Mon 11:03:25 PM 40.0108 -76.4303 250° West 352 405 36,000  Level FlightAware ADS-B (KWWD)
Mon 11:03:36 PM 40.0047 -76.4522 250° West 352 405 36,000  Level FlightAware ADS-B (KWWD)
Mon 11:03:53 PM 39.9965 -76.4814 250° West 355 409 36,000  Level FlightAware ADS-B
Mon 11:04:09 PM 39.9862 -76.5178 250° West 352 405 36,000  Level FlightAware ADS-B (KWWD)
Mon 11:04:39 PM 39.9695 -76.5771 250° West 355 409 36,000  Level FlightAware ADS-B
Mon 11:05:15 PM 39.9485 -76.6513 250° West 351 404 36,000  Level FlightAware ADS-B (KWWD)
Mon 11:05:45 PM 39.9315 -76.7112 250° West 350 403 36,000  Level FlightAware ADS-B (KWWD)
Mon 11:06:05 PM 39.9247 -76.7350 250° West 352 405 36,000  Level FlightAware ADS-B
Mon 11:06:35 PM 39.9035 -76.8095 250° West 348 400 36,000  Level FlightAware ADS-B (KWWD)
Mon 11:07:07 PM 39.8889 -76.8605 250° West 351 404 36,000  Level FlightAware ADS-B
Mon 11:07:17 PM 39.8799 -76.8923 250° West 350 403 36,000  Level FlightAware ADS-B
Mon 11:07:31 PM 39.8718 -76.9206 250° West 347 399 36,000  Level FlightAware ADS-B (KWWD)
Mon 11:08:03 PM 39.8562 -76.9747 249° West 350 403 36,000  Level FlightAware ADS-B
Mon 11:08:38 PM 39.8371 -77.0411 250° West 349 402 36,000  Level FlightAware ADS-B
Mon 11:09:11 PM 39.8152 -77.1171 249° West 347 399 36,000  Level FlightAware ADS-B (KWWD)
Mon 11:09:55 PM 39.7915 -77.1992 249° West 349 402 36,000  Level FlightAware ADS-B
Mon 11:10:04 PM 39.7855 -77.2199 249° West 347 399 36,000  Level FlightAware ADS-B (KWWD)
Mon 11:10:35 PM 39.7680 -77.2802 249° West 350 403 36,000  Level FlightAware ADS-B
Mon 11:11:15 PM 39.7463 -77.3549 249° West 352 405 36,000  Level FlightAware ADS-B
Mon 11:11:55 PM 39.7220 -77.4379 249° West 354 407 36,000 69 Level FlightAware ADS-B
Mon 11:12:42 PM 39.6976 -77.5218 249° West 355 409 36,100 77 Climbing FlightAware ADS-B
Mon 11:13:13 PM 39.6767 -77.5929 249° West 354 407 36,100 -94 Level FlightAware ADS-B
Mon 11:13:46 PM 39.6573 -77.6587 249° West 351 404 36,000 -87 Descending FlightAware ADS-B (KWWD)
Mon 11:14:22 PM 39.6365 -77.7292 249° West 351 404 36,000  Level FlightAware ADS-B (KWWD)
Mon 11:16:33 PM 39.5606 -77.9848 249° West 350 403 36,000  Level FlightAware ADS-B
Mon 11:17:15 PM 39.5358 -78.0678 249° West 346 398 36,000  Level FlightAware ADS-B (KWWD)
Mon 11:17:51 PM 39.5144 -78.1392 249° West 347 399 36,000  Level FlightAware ADS-B (KWWD)
Mon 11:18:35 PM 39.4885 -78.2252 249° West 352 405 36,000 27 Level FlightAware ADS-B (KWWD)
Mon 11:21:31 PM 39.3926 -78.5420 249° West 357 411 36,100  Climbing FlightAware ADS-B (KWWD)
Mon 11:22:27 PM 39.3503 -78.6807 249° West 357 411 36,000 -69 Descending FlightAware ADS-B (KWWD)
Mon 11:22:58 PM 39.3314 -78.7426 248° West 358 412 36,000  Level FlightAware ADS-B (KWWD)
Mon 11:23:33 PM 39.3103 -78.8115 248° West 358 412 36,000  Level FlightAware ADS-B (KWWD)
Mon 11:27:34 PM 39.1622 -79.2886 248° West 358 412 36,000  Level FlightAware ADS-B (KWWD)
Mon 11:28:25 PM 39.1307 -79.3889 248° West 358 412 36,000  Level FlightAware ADS-B (KWWD)
Mon 11:28:59 PM 39.1095 -79.4564 248° West 358 412 36,000  Level FlightAware ADS-B (KWWD)
Mon 11:29:49 PM 39.0786 -79.5545 248° West 359 413 36,000  Level FlightAware ADS-B (KWWD)
Mon 11:30:47 PM 39.0467 -79.6622 248° West 368 423 36,000  Level Washington Center
Mon 11:31:46 PM 39.0139 -79.7700 249° West 368 423 36,000  Level Washington Center
Mon 11:32:46 PM 38.9739 -79.9011 249° West 368 423 36,000  Level Washington Center
Mon 11:33:45 PM 38.9361 -80.0164 247° West 368 423 36,000  Level Washington Center
Mon 11:35:08 PM 38.8853 -80.1589 245° Southwest 358 412 36,000  Level Indianapolis Center
Mon 11:36:10 PM 38.8494 -80.2769 249° West 357 411 36,000  Level Indianapolis Center
Mon 11:37:11 PM 38.8172 -80.3978 251° West 357 411 36,000  Level Indianapolis Center
Mon 11:38:12 PM 38.7764 -80.5431 250° West 359 413 36,000  Level Indianapolis Center
Mon 11:39:12 PM 38.7411 -80.6631 249° West 360 414 36,000  Level Indianapolis Center
Mon 11:40:13 PM 38.7064 -80.7836 250° West 359 413 36,000  Level Indianapolis Center
Mon 11:41:14 PM 38.6711 -80.9033 249° West 360 414 36,000  Level Indianapolis Center
Mon 11:42:15 PM 38.6361 -81.0236 250° West 359 413 36,000  Level Indianapolis Center
Mon 11:43:16 PM 38.6011 -81.1433 250° West 357 411 36,000  Level Indianapolis Center
Mon 11:44:17 PM 38.5800 -81.2658 258° West 358 412 36,000 -393 Level Indianapolis Center
Mon 11:45:18 PM 38.5719 -81.3931 265° West 355 409 35,200 -885 Descending Indianapolis Center
Mon 11:46:19 PM 38.5653 -81.5253 266° West 362 417 34,200 -984 Descending Indianapolis Center
Mon 11:47:20 PM 38.5375 -81.6533 255° West 367 422 33,200 -934 Descending Indianapolis Center
Mon 11:48:21 PM 38.5078 -81.7800 253° West 368 423 32,300 -934 Descending Indianapolis Center
Mon 11:49:22 PM 38.4781 -81.9078 253° West 372 428 31,300 -639 Descending Indianapolis Center
Mon 11:50:23 PM 38.4444 -82.0317 251° West 370 426 31,000 -148 Descending Indianapolis Center
Mon 11:51:24 PM 38.4036 -82.1517 247° West 369 425 31,000  Level Indianapolis Center
Mon 11:52:25 PM 38.3622 -82.2703 246° West 366 421 31,000  Level Indianapolis Center
Mon 11:53:26 PM 38.3200 -82.3900 246° West 368 423 31,000  Level Indianapolis Center
Mon 11:59:42 PM 38.0503 -83.1606 246° West 372 428 31,000  Level FlightAware ADS-B
Tue 12:00:15 AM 38.0272 -83.2253 246° West 371 427 31,000  Level FlightAware ADS-B
Tue 12:00:33 AM 38.0211 -83.2408 244° Southwest 370 426 31,000 -387 Level Indianapolis Center
Tue 12:00:46 AM 38.0052 -83.2874 246° West 361 415 30,800 -933 Descending FlightAware ADS-B
Tue 12:01:18 AM 37.9846 -83.3464 246° West 337 388 30,300 -625 Descending FlightAware ADS-B
Tue 12:01:34 AM 37.9806 -83.3564 246° West 361 415 30,300 -774 Level Indianapolis Center
Tue 12:01:49 AM 37.9647 -83.4004 245° Southwest 318 366 29,900 -984 Descending FlightAware ADS-B
Tue 12:02:35 AM 37.9392 -83.4706 245° Southwest 308 354 29,300 -840 Descending Indianapolis Center
Tue 12:02:39 AM 37.9356 -83.4797 245° Southwest 295 339 29,200 -837 Descending FlightAware ADS-B
Tue 12:03:18 AM 37.9145 -83.5396 246° West 294 338 28,700 -842 Descending FlightAware ADS-B
Tue 12:03:36 AM 37.9056 -83.5642 246° West 296 341 28,400 -1,077 Descending Indianapolis Center
Tue 12:03:57 AM 37.8920 -83.6013 245° Southwest 294 338 28,000 -1,071 Descending FlightAware ADS-B
Tue 12:04:32 AM 37.8718 -83.6563 245° Southwest 292 336 27,400 -900 Descending FlightAware ADS-B
Tue 12:04:37 AM 37.8706 -83.6572 245° Southwest 294 338 27,400 -1,000 Level Indianapolis Center
Tue 12:05:38 AM 37.8383 -83.7489 246° West 288 331 26,300 -1,082 Descending Indianapolis Center
Tue 12:06:39 AM 37.8056 -83.8394 245° Southwest 284 327 25,200 -1,082 Descending Indianapolis Center
Tue 12:07:00 AM 37.7652 -83.9326 244° Southwest  Level FlightAware Approximate
Tue 12:07:40 AM 37.7350 -83.8958 212° Southwest 303 349 24,100  Level Indianapolis Center
Tue 12:08:41 AM 37.6625 -83.9472 209° Southwest 300 345 23,000 -1,082 Descending Indianapolis Center
Tue 12:09:42 AM 37.5919 -83.9950 208° Southwest 292 336 21,900 -1,091 Descending Indianapolis Center
Tue 12:10:42 AM 37.5225 -84.0414 208° Southwest 283 326 20,800 -1,240 Descending Indianapolis Center
Tue 12:11:43 AM 37.4589 -84.0978 215° Southwest 282 325 19,400 -1,328 Descending Indianapolis Center
Tue 12:12:44 AM 37.4714 -84.1947 279° West 286 329 18,100 -1,033 Descending Indianapolis Center
Tue 12:13:45 AM 37.4931 -84.2914 286° West 284 327 17,300 -984 Descending Indianapolis Center
Tue 12:14:46 AM 37.5172 -84.3850 288° West 282 325 16,100 -1,230 Descending Indianapolis Center
Tue 12:15:47 AM 37.5431 -84.4922 287° West 275 316 14,800 -1,180 Descending Indianapolis Center
Tue 12:16:48 AM 37.5642 -84.5806 287° West 266 306 13,700 -1,033 Descending Indianapolis Center
Tue 12:17:49 AM 37.5864 -84.6736 287° West 274 315 12,700 -992 Descending Indianapolis Center
Tue 12:18:49 AM 37.6089 -84.7669 287° West 279 321 11,700 -843 Descending Indianapolis Center
Tue 12:19:50 AM 37.6314 -84.8606 287° West 278 320 11,000 -295 Descending Indianapolis Center
Tue 12:20:51 AM 37.6539 -84.9511 287° West 272 313 11,100 -197 Climbing Indianapolis Center
Tue 12:21:52 AM 37.7056 -85.0219 313° West 277 319 10,600 -443 Descending Indianapolis Center
Tue 12:22:53 AM 37.7553 -85.0942 311° West 270 311 10,200 -590 Descending Indianapolis Center
Tue 12:23:54 AM 37.8053 -85.1636 312° West 268 308 9,400 -793 Descending Indianapolis Center
Tue 12:24:54 AM 37.8572 -85.2333 313° West 266 306 8,600 -744 Descending Indianapolis Center
Tue 12:25:55 AM 37.9058 -85.3036 311° West 265 305 7,900 -639 Descending Indianapolis Center
Tue 12:26:56 AM 37.9519 -85.3639 314° West 244 281 7,300 -787 Descending Indianapolis Center
Tue 12:27:57 AM 37.9936 -85.4219 312° West 226 260 6,300 -639 Descending Indianapolis Center
Tue 12:28:58 AM 38.0319 -85.4772 311° West 212 244 6,000 -148 Descending Indianapolis Center
Tue 12:29:59 AM 38.0686 -85.5292 312° West 201 231 6,000  Level Indianapolis Center
Tue 12:30:59 AM 38.1056 -85.5778 314° West 197 227 6,000  Level Indianapolis Center
Tue 12:32:01 AM 38.1500 -85.5997 339° North 185 213 6,000 -148 Level Indianapolis Center
Tue 12:33:01 AM 38.1967 -85.6236 338° Northwest 179 206 5,700 -397 Descending Indianapolis Center
Tue 12:34:02 AM 38.2450 -85.6397 345° North 178 205 5,200 -347 Descending Indianapolis Center
Tue 12:35:02 AM 38.2908 -85.6553 345° North 175 201 5,000 -99 Descending Indianapolis Center
Tue 12:36:03 AM 38.3378 -85.6731 343° North 174 200 5,000  Level Indianapolis Center
Tue 12:37:04 AM 38.3847 -85.6886 345° North 174 200 5,000  Level Indianapolis Center
Tue 12:38:05 AM 38.4311 -85.7061 344° North 174 200 5,000  Level Indianapolis Center
Tue 12:39:05 AM 38.4786 -85.7242 343° North 176 203 5,000  Level Indianapolis Center
Tue 12:40:06 AM 38.5258 -85.7408 345° North 176 203 5,000 -197 Level Indianapolis Center
Tue 12:41:07 AM 38.5447 -85.7939 294° West 167 192 4,600 -446 Descending Indianapolis Center
Tue 12:42:07 AM 38.5197 -85.8336 231° Southwest 167 192 4,100 -298 Descending Indianapolis Center
Tue 12:43:08 AM 38.4733 -85.8311 178° South 170 196 4,000 -49 Descending Indianapolis Center
Tue 12:44:09 AM 38.4247 -85.8128 164° South 175 201 4,000  Level Indianapolis Center
Tue 12:45:09 AM 38.3789 -85.7969 165° South 174 200 4,000 -99 Level Indianapolis Center
Tue 12:46:10 AM 38.3325 -85.7814 165° South 173 199 3,800 -590 Descending Indianapolis Center
Tue 12:47:11 AM 38.2869 -85.7658 165° South 171 197 2,800 -905 Descending Indianapolis Center
Tue 12:49:09 AM 38.2167 -85.7333 160° South 143 165 1,100 -864 Descending Louisville TRACON

Login

Don't have an account? Register now (free) for customized features, flight alerts, and more!